Time;durP1;ratioP1;P1;durP2;ratioP2;P2;SDS_P1;SDS_P2;PMS_P1;PMS_P2;Temp;Humidity;BMP_temperature;BMP_pressure;BME280_temperature;BME280_humidity;BME280_pressure;Samples;Min_cycle;Max_cycle;Signal;HPM_P1;HPM_P2
2022/01/07 00:01:35;;;;;;;2.92;1.20;;;;;;;2.74;49.71;100518.56;4466180;32;33133;-83
2022/01/07 00:04:03;;;;;;;2.87;1.40;;;;;;;3.04;49.19;100522.91;4474476;32;33187;-83
2022/01/07 00:06:31;;;;;;;4.37;1.62;;;;;;;2.90;49.56;100529.91;4463665;32;34514;-83
2022/01/07 00:08:58;;;;;;;4.15;1.30;;;;;;;2.61;49.99;100542.03;4462831;32;34738;-82
2022/01/07 00:11:26;;;;;;;4.00;1.37;;;;;;;2.70;49.96;100550.75;4470050;32;33562;-82
2022/01/07 00:13:54;;;;;;;5.60;1.87;;;;;;;2.76;49.80;100549.91;4469816;32;33330;-83
2022/01/07 00:16:22;;;;;;;1.98;0.98;;;;;;;2.78;49.76;100546.41;4463788;32;34206;-82
2022/01/07 00:18:50;;;;;;;2.72;1.20;;;;;;;2.95;49.26;100551.63;4457017;32;33510;-83
2022/01/07 00:21:18;;;;;;;10.13;1.73;;;;;;;3.18;48.50;100549.00;4456137;32;33458;-82
2022/01/07 00:23:46;;;;;;;3.90;1.02;;;;;;;3.22;48.28;100542.88;4457308;32;33459;-82
2022/01/07 00:26:14;;;;;;;2.60;1.27;;;;;;;3.01;49.07;100546.38;4468522;32;33939;-83
2022/01/07 00:28:42;;;;;;;2.97;1.12;;;;;;;2.76;49.42;100548.16;4456699;32;33892;-85
2022/01/07 00:31:10;;;;;;;2.78;1.12;;;;;;;2.68;49.82;100549.88;4456222;32;32430;-84
2022/01/07 00:33:38;;;;;;;2.90;1.42;;;;;;;2.07;51.61;100557.59;4458277;32;33129;-84
2022/01/07 00:36:06;;;;;;;7.22;1.50;;;;;;;2.40;50.53;100550.72;4460479;32;33295;-83
2022/01/07 00:38:34;;;;;;;8.98;1.45;;;;;;;2.73;49.95;100548.13;4461060;32;33547;-84
2022/01/07 00:41:03;;;;;;;4.53;1.65;;;;;;;2.82;49.50;100553.34;4450663;32;34028;-84
2022/01/07 00:43:31;;;;;;;4.60;1.87;;;;;;;2.86;49.38;100554.22;4475198;32;33317;-84
2022/01/07 00:45:59;;;;;;;5.82;1.37;;;;;;;2.99;49.02;100557.69;4463657;32;34346;-84
2022/01/07 00:48:27;;;;;;;6.95;2.10;;;;;;;2.68;49.92;100555.09;4460621;32;33288;-85
2022/01/07 00:50:55;;;;;;;5.15;1.80;;;;;;;2.57;50.47;100549.00;4474035;32;34791;-85
2022/01/07 00:53:22;;;;;;;9.00;1.77;;;;;;;2.42;50.94;100547.25;4462173;32;34375;-84
2022/01/07 00:55:50;;;;;;;3.87;1.55;;;;;;;2.41;51.11;100542.03;4462612;32;33599;-84
2022/01/07 00:58:18;;;;;;;8.85;1.92;;;;;;;2.39;51.01;100544.66;4456793;32;32633;-84
2022/01/07 01:00:46;;;;;;;6.80;1.75;;;;;;;2.21;51.29;100539.41;4469301;32;34439;-84
2022/01/07 01:03:14;;;;;;;3.92;1.73;;;;;;;1.73;52.85;100544.47;4463834;32;33751;-84
2022/01/07 01:05:44;;;;;;;3.33;1.80;;;;;;;1.58;54.13;100538.31;4452300;32;33330;-83
2022/01/07 01:08:12;;;;;;;8.63;1.85;;;;;;;1.70;53.63;100528.81;4457282;32;33730;-83
2022/01/07 01:10:40;;;;;;;5.97;1.85;;;;;;;1.95;53.05;100524.59;4460468;32;33568;-84
2022/01/07 01:13:09;;;;;;;7.03;1.60;;;;;;;1.82;53.29;100528.00;4463097;32;33910;-84
2022/01/07 01:15:38;;;;;;;6.60;2.22;;;;;;;1.51;54.04;100533.06;4462181;32;34299;-84
2022/01/07 01:18:06;;;;;;;2.67;1.50;;;;;;;1.84;53.67;100531.47;4459707;32;33140;-85
2022/01/07 01:20:35;;;;;;;4.07;1.55;;;;;;;1.72;53.77;100527.09;4461138;32;33759;-84
2022/01/07 01:23:02;;;;;;;2.17;1.42;;;;;;;1.77;53.84;100516.72;4449621;32;33346;-84
2022/01/07 01:25:31;;;;;;;3.12;1.65;;;;;;;1.35;54.50;100515.66;4473058;32;33916;-84
2022/01/07 01:27:58;;;;;;;5.15;1.60;;;;;;;1.41;54.84;100515.69;4461873;32;33527;-84
2022/01/07 01:30:28;;;;;;;1.95;1.37;;;;;;;1.09;55.33;100512.88;4462890;32;33822;-84
2022/01/07 01:32:56;;;;;;;2.97;1.40;;;;;;;1.31;54.77;100513.03;4455584;32;33021;-83
2022/01/07 01:35:24;;;;;;;4.50;1.70;;;;;;;1.32;54.98;100525.16;4448060;32;33130;-83
2022/01/07 01:37:52;;;;;;;4.70;1.70;;;;;;;1.67;53.99;100534.03;4460981;32;32652;-83
2022/01/07 01:40:20;;;;;;;11.27;3.35;;;;;;;1.83;53.34;100528.87;4475307;32;34723;-83
2022/01/07 01:42:51;;;;;;;7.78;2.22;;;;;;;1.28;54.62;100532.97;4453296;32;32473;-83
2022/01/07 01:45:21;;;;;;;5.95;2.10;;;;;;;1.21;55.39;100528.59;4463137;32;33068;-83
2022/01/07 01:47:49;;;;;;;8.10;2.97;;;;;;;1.14;55.44;100541.53;4453903;32;33513;-83
2022/01/07 01:50:17;;;;;;;5.47;2.33;;;;;;;0.74;56.76;100536.06;4462176;32;34176;-83
2022/01/07 01:52:49;;;;;;;4.70;2.55;;;;;;;0.61;57.00;100548.06;4449997;32;32417;-83
2022/01/07 01:55:18;;;;;;;6.72;2.22;;;;;;;0.50;57.54;100553.19;4474904;32;34233;-83
2022/01/07 01:57:47;;;;;;;4.72;2.10;;;;;;;-0.09;59.55;100563.84;4463765;32;33791;-83
2022/01/07 02:00:15;;;;;;;3.17;1.48;;;;;;;-0.09;59.48;100570.75;4464189;32;33945;-84
2022/01/07 02:02:43;;;;;;;4.00;1.60;;;;;;;0.14;59.07;100571.00;4462509;32;32486;-84
2022/01/07 02:05:12;;;;;;;3.05;1.50;;;;;;;0.13;58.66;100572.72;4450613;32;33794;-84
2022/01/07 02:07:41;;;;;;;2.90;1.20;;;;;;;0.40;58.08;100581.66;4475254;32;33760;-84
2022/01/07 02:10:11;;;;;;;3.70;1.60;;;;;;;0.21;58.47;100581.47;4461577;32;32389;-84
2022/01/07 02:12:40;;;;;;;5.85;1.67;;;;;;;0.55;57.67;100581.81;4473388;32;33433;-84
2022/01/07 02:15:11;;;;;;;2.42;1.20;;;;;;;1.11;56.15;100584.00;4465845;32;33098;-82
2022/01/07 02:17:41;;;;;;;6.75;1.73;;;;;;;1.16;55.24;100577.09;4473785;32;33190;-83
2022/01/07 02:20:10;;;;;;;3.00;1.48;;;;;;;1.49;54.47;100565.16;4474352;32;33799;-83
2022/01/07 02:22:40;;;;;;;5.47;1.40;;;;;;;1.58;54.20;100569.56;4478591;32;33001;-82
2022/01/07 02:25:09;;;;;;;3.22;1.95;;;;;;;1.63;53.80;100579.13;4475332;32;33899;-82
2022/01/07 02:27:39;;;;;;;3.85;1.50;;;;;;;1.77;53.44;100572.25;4475479;32;33574;-82
2022/01/07 02:30:10;;;;;;;4.68;1.90;;;;;;;2.00;52.67;100559.31;4457615;32;34146;-83
2022/01/07 02:32:38;;;;;;;4.25;1.73;;;;;;;1.96;52.58;100554.09;4464222;32;33432;-83
2022/01/07 02:35:08;;;;;;;2.58;1.48;;;;;;;1.51;53.90;100564.31;4476637;32;34308;-82
2022/01/07 02:37:36;;;;;;;4.43;1.65;;;;;;;1.79;53.52;100567.91;4462020;32;33671;-82
2022/01/07 02:40:06;;;;;;;2.25;1.00;;;;;;;2.22;51.46;100570.66;4475023;32;33986;-83
2022/01/07 02:42:34;;;;;;;6.28;1.83;;;;;;;2.28;51.42;100580.25;4451179;32;31506;-82
2022/01/07 02:45:05;;;;;;;4.62;1.37;;;;;;;2.27;51.50;100571.53;4462487;32;32746;-82
2022/01/07 02:47:41;;;;;;;3.50;1.52;;;;;;;1.87;52.60;100569.69;4476363;32;33962;-82
2022/01/07 02:50:09;;;;;;;4.43;1.75;;;;;;;2.08;52.35;100564.53;4464210;32;34296;-83
2022/01/07 02:52:37;;;;;;;2.92;1.73;;;;;;;2.17;51.77;100564.56;4457145;32;32996;-82
2022/01/07 02:55:05;;;;;;;6.97;1.65;;;;;;;1.96;51.95;100567.13;4456832;32;33792;-82
2022/01/07 02:57:32;;;;;;;4.47;2.28;;;;;;;2.28;50.72;100560.28;4477073;32;33842;-82
2022/01/07 03:00:02;;;;;;;3.08;1.65;;;;;;;2.26;50.78;100556.78;4477202;32;33938;-82
2022/01/07 03:02:29;;;;;;;3.45;2.20;;;;;;;2.25;50.73;100560.25;4463105;32;33540;-82
2022/01/07 03:04:57;;;;;;;6.30;1.87;;;;;;;2.22;50.92;100559.37;4448119;32;32742;-81
2022/01/07 03:07:25;;;;;;;5.10;1.15;;;;;;;2.11;51.05;100561.09;4450774;32;33038;-81
2022/01/07 03:09:52;;;;;;;4.85;1.95;;;;;;;2.13;51.04;100555.00;4456061;32;34001;-81
2022/01/07 03:12:20;;;;;;;5.72;1.77;;;;;;;1.67;52.24;100560.06;4468987;32;34098;-82
2022/01/07 03:14:49;;;;;;;3.37;1.85;;;;;;;1.60;52.46;100565.22;4472854;32;33877;-82
2022/01/07 03:17:17;;;;;;;2.40;1.42;;;;;;;1.54;52.58;100572.13;4462810;32;31041;-82
2022/01/07 03:19:44;;;;;;;5.35;1.95;;;;;;;1.53;52.62;100574.75;4468204;32;34408;-82
2022/01/07 03:22:12;;;;;;;2.28;1.30;;;;;;;1.00;54.14;100586.53;4458015;32;33642;-82
2022/01/07 03:24:40;;;;;;;4.32;1.73;;;;;;;1.51;52.87;100579.91;4476373;32;33516;-82
2022/01/07 03:27:08;;;;;;;3.08;1.70;;;;;;;0.99;54.00;100605.59;4464493;32;34241;-82
2022/01/07 03:29:36;;;;;;;1.58;1.20;;;;;;;1.14;53.70;100602.25;4463486;32;32727;-82
2022/01/07 03:32:04;;;;;;;3.58;1.40;;;;;;;0.90;54.70;100604.62;4462281;32;32993;-82
2022/01/07 03:34:32;;;;;;;6.18;2.10;;;;;;;1.10;54.19;100605.69;4460388;32;32684;-82
2022/01/07 03:36:59;;;;;;;4.60;1.98;;;;;;;1.13;53.89;100608.28;4474382;32;33869;-82
2022/01/07 03:39:27;;;;;;;5.93;2.37;;;;;;;1.38;53.30;100616.28;4461479;32;33939;-82
2022/01/07 03:41:55;;;;;;;5.00;1.77;;;;;;;1.11;54.46;100615.22;4463639;32;32278;-82
2022/01/07 03:44:22;;;;;;;7.72;2.00;;;;;;;1.16;54.23;100602.25;4475484;32;34505;-82
2022/01/07 03:46:50;;;;;;;4.47;1.70;;;;;;;1.16;53.56;100610.94;4475128;32;34073;-82
2022/01/07 03:49:18;;;;;;;5.10;1.75;;;;;;;1.09;53.31;100619.53;4472508;32;33715;-82
2022/01/07 03:51:45;;;;;;;4.60;2.05;;;;;;;1.20;53.05;100620.50;4468533;32;33681;-84
2022/01/07 03:54:13;;;;;;;4.00;1.83;;;;;;;1.07;53.28;100613.47;4456306;32;34595;-84
2022/01/07 03:56:41;;;;;;;4.03;1.83;;;;;;;1.21;52.95;100618.75;4462377;32;33721;-85
2022/01/07 03:59:09;;;;;;;5.37;1.40;;;;;;;1.22;53.31;100613.56;4451870;32;33091;-85
2022/01/07 04:01:36;;;;;;;4.82;1.75;;;;;;;1.11;53.54;100612.63;4462424;32;33376;-85
2022/01/07 04:04:04;;;;;;;3.40;1.50;;;;;;;1.08;53.58;100615.19;4462844;32;33141;-85
2022/01/07 04:06:32;;;;;;;4.18;1.45;;;;;;;1.15;53.75;100611.78;4452008;32;33445;-85
2022/01/07 04:09:00;;;;;;;3.72;2.10;;;;;;;1.37;52.94;100614.53;4465513;32;34652;-84
2022/01/07 04:11:28;;;;;;;4.57;1.73;;;;;;;1.52;52.21;100610.31;4477865;32;32889;-84
2022/01/07 04:13:56;;;;;;;2.65;1.85;;;;;;;1.50;52.56;100608.56;4462429;32;31472;-85
2022/01/07 04:16:24;;;;;;;4.15;1.48;;;;;;;1.18;53.51;100609.19;4473622;32;33869;-84
2022/01/07 04:18:52;;;;;;;5.90;1.65;;;;;;;0.98;54.31;100608.19;4460957;32;32673;-85
2022/01/07 04:21:21;;;;;;;2.05;1.45;;;;;;;0.60;54.89;100615.63;4463650;32;34124;-84
2022/01/07 04:23:49;;;;;;;4.20;1.35;;;;;;;0.12;56.50;100612.53;4462674;32;33797;-84
2022/01/07 04:26:16;;;;;;;5.53;1.62;;;;;;;0.35;55.58;100607.59;4447329;32;33634;-84
2022/01/07 04:28:45;;;;;;;3.35;1.40;;;;;;;0.30;55.44;100611.88;4465416;32;34502;-84
2022/01/07 04:31:13;;;;;;;10.18;1.87;;;;;;;0.29;55.12;100614.47;4463380;32;33772;-84
2022/01/07 04:33:41;;;;;;;6.95;2.15;;;;;;;0.36;55.20;100630.13;4475580;32;33528;-84
2022/01/07 04:36:09;;;;;;;8.50;3.35;;;;;;;0.23;55.46;100629.09;4447901;32;33249;-84
2022/01/07 04:38:37;;;;;;;2.42;1.50;;;;;;;0.46;54.95;100618.09;4468733;32;33108;-84
2022/01/07 04:41:05;;;;;;;6.50;2.45;;;;;;;0.32;55.02;100622.28;4454333;32;31958;-83
2022/01/07 04:43:33;;;;;;;4.53;1.52;;;;;;;0.25;55.71;100626.53;4449773;32;32451;-83
2022/01/07 04:46:01;;;;;;;4.72;2.33;;;;;;;0.22;55.50;100627.37;4469043;32;33898;-83
2022/01/07 04:48:29;;;;;;;2.67;1.52;;;;;;;0.25;55.54;100629.12;4462395;32;32495;-84
2022/01/07 04:50:57;;;;;;;5.20;1.98;;;;;;;0.17;55.88;100638.56;4460184;32;32853;-83
2022/01/07 04:53:26;;;;;;;12.68;2.28;;;;;;;0.17;55.72;100634.22;4464755;32;33749;-83
2022/01/07 04:55:56;;;;;;;4.65;1.42;;;;;;;0.38;55.39;100635.31;4463291;32;33971;-83
2022/01/07 04:58:25;;;;;;;4.47;2.08;;;;;;;0.44;54.99;100649.25;4458512;32;34134;-83
2022/01/07 05:00:53;;;;;;;3.55;2.03;;;;;;;0.03;56.37;100648.78;4455643;32;33028;-83
2022/01/07 05:03:21;;;;;;;4.30;1.75;;;;;;;0.17;56.00;100635.97;4463549;32;32771;-82
2022/01/07 05:05:58;;;;;;;5.43;1.87;;;;;;;0.20;55.73;100636.87;4474451;32;33198;-83
2022/01/07 05:08:25;;;;;;;4.55;2.08;;;;;;;-0.07;56.73;100639.12;4449483;32;32584;-82
2022/01/07 05:10:53;;;;;;;6.55;1.87;;;;;;;0.03;56.32;100634.91;4460070;32;33276;-82
2022/01/07 05:13:20;;;;;;;6.85;2.10;;;;;;;-0.02;56.28;100635.72;4477194;32;35059;-82
2022/01/07 05:15:48;;;;;;;5.45;2.08;;;;;;;0.17;55.77;100631.62;4459675;32;34325;-82
2022/01/07 05:18:16;;;;;;;5.93;2.22;;;;;;;0.05;55.77;100636.69;4463424;32;32787;-83
2022/01/07 05:20:46;;;;;;;3.50;2.12;;;;;;;0.12;55.31;100638.50;4464610;32;31815;-84
2022/01/07 05:23:14;;;;;;;7.82;2.20;;;;;;;0.02;55.25;100634.06;4462117;32;34400;-84
2022/01/07 05:25:42;;;;;;;3.95;2.20;;;;;;;0.04;54.98;100629.75;4461669;32;32850;-84
2022/01/07 05:28:10;;;;;;;9.32;2.85;;;;;;;-0.02;54.83;100629.69;4459387;32;36177;-84
2022/01/07 05:30:38;;;;;;;5.65;3.00;;;;;;;-0.21;55.84;100648.47;4459454;32;32296;-84
2022/01/07 05:33:05;;;;;;;10.27;2.90;;;;;;;-0.29;56.57;100646.63;4477937;32;34501;-84
2022/01/07 05:35:33;;;;;;;4.22;2.67;;;;;;;-0.21;56.05;100638.06;4465050;32;34402;-84
2022/01/07 05:38:02;;;;;;;8.35;2.60;;;;;;;-0.29;56.67;100651.81;4479171;32;33676;-84
2022/01/07 05:40:30;;;;;;;6.47;4.03;;;;;;;-0.41;57.29;100656.84;4460106;32;34081;-83
2022/01/07 05:42:58;;;;;;;7.22;3.45;;;;;;;-0.19;56.13;100658.03;4477602;32;33604;-83
2022/01/07 05:45:26;;;;;;;8.13;3.95;;;;;;;-0.46;56.40;100647.25;4466783;32;31780;-83
2022/01/07 05:47:53;;;;;;;5.37;2.50;;;;;;;-0.47;56.48;100648.09;4474160;32;33679;-83
2022/01/07 05:50:22;;;;;;;6.80;2.75;;;;;;;-0.38;55.75;100659.50;4461120;32;33187;-83
2022/01/07 05:52:50;;;;;;;13.40;3.55;;;;;;;-0.44;55.88;100651.59;4477547;32;33847;-83
2022/01/07 05:55:18;;;;;;;24.30;7.70;;;;;;;-0.61;56.92;100656.56;4475315;31;33047;-83
2022/01/07 05:57:45;;;;;;;14.25;5.45;;;;;;;-0.35;56.71;100661.25;4459535;32;34599;-83
2022/01/07 06:00:14;;;;;;;35.97;12.63;;;;;;;-0.39;56.18;100660.31;4460976;32;32338;-83
2022/01/07 06:02:42;;;;;;;39.10;12.30;;;;;;;-0.50;56.56;100656.72;4464551;32;33276;-83
2022/01/07 06:05:11;;;;;;;47.45;15.52;;;;;;;-0.35;56.08;100656.91;4467094;31;33121;-83
2022/01/07 06:07:38;;;;;;;19.90;6.75;;;;;;;-0.34;55.65;100662.97;4452612;32;32871;-83
2022/01/07 06:10:07;;;;;;;16.33;5.82;;;;;;;-0.36;55.53;100668.16;4452444;32;32101;-84
2022/01/07 06:12:35;;;;;;;16.60;7.32;;;;;;;-0.53;56.02;100661.84;4460664;32;34192;-85
2022/01/07 06:15:02;;;;;;;11.32;5.22;;;;;;;-0.66;55.76;100670.31;4449621;32;35898;-84
2022/01/07 06:17:31;;;;;;;10.50;4.00;;;;;;;-0.56;55.16;100672.19;4473432;32;33594;-84
2022/01/07 06:19:58;;;;;;;14.10;5.20;;;;;;;-0.46;55.25;100674.06;4474721;32;33417;-84
2022/01/07 06:22:26;;;;;;;12.40;3.90;;;;;;;-0.42;55.39;100675.00;4449746;32;33448;-85
2022/01/07 06:24:54;;;;;;;8.02;3.92;;;;;;;-0.47;55.62;100672.31;4475742;32;34699;-85
2022/01/07 06:27:22;;;;;;;5.30;2.83;;;;;;;-0.68;55.65;100671.97;4462586;32;33344;-84
2022/01/07 06:29:49;;;;;;;7.03;2.90;;;;;;;-0.86;55.32;100680.34;4474288;32;33473;-85
2022/01/07 06:32:17;;;;;;;6.22;3.67;;;;;;;-0.68;55.36;100677.16;4474612;32;34306;-83
2022/01/07 06:34:45;;;;;;;8.55;2.97;;;;;;;-0.90;56.05;100674.25;4474855;32;33971;-84
2022/01/07 06:37:13;;;;;;;10.32;3.42;;;;;;;-0.75;55.52;100690.91;4462156;32;33335;-84
2022/01/07 06:39:42;;;;;;;12.20;4.60;;;;;;;-0.57;55.12;100685.97;4475426;32;33241;-83
2022/01/07 06:42:10;;;;;;;10.60;4.12;;;;;;;-0.63;55.75;100685.91;4447416;32;32822;-84
2022/01/07 06:44:38;;;;;;;10.73;3.78;;;;;;;-0.66;55.72;100693.66;4462338;32;33192;-83
2022/01/07 06:47:06;;;;;;;9.70;3.95;;;;;;;-0.81;56.02;100692.56;4462873;31;32853;-82
2022/01/07 06:49:34;;;;;;;6.65;3.60;;;;;;;-1.13;57.36;100696.31;4452278;32;31981;-83
2022/01/07 06:52:03;;;;;;;9.10;4.03;;;;;;;-0.84;56.72;100695.09;4459774;32;32887;-83
2022/01/07 06:54:31;;;;;;;8.13;4.15;;;;;;;-1.00;56.90;100687.00;4461462;32;32654;-83
2022/01/07 06:56:59;;;;;;;14.32;6.60;;;;;;;-0.80;56.65;100694.28;4462220;32;34580;-83
2022/01/07 06:59:27;;;;;;;9.05;4.00;;;;;;;-0.73;56.25;100699.56;4460432;32;34191;-83
2022/01/07 07:01:54;;;;;;;14.05;6.25;;;;;;;-0.64;56.09;100689.34;4460994;31;32499;-83
2022/01/07 07:04:23;;;;;;;15.30;7.45;;;;;;;-0.65;56.32;100687.59;4461068;32;33625;-83
2022/01/07 07:06:51;;;;;;;9.35;4.72;;;;;;;-0.53;56.17;100700.75;4472414;32;34569;-83
2022/01/07 07:09:19;;;;;;;15.60;7.75;;;;;;;-0.54;56.39;100706.78;4459766;32;33965;-83
2022/01/07 07:11:47;;;;;;;22.45;8.40;;;;;;;-0.43;56.05;100697.44;4462346;32;33478;-83
2022/01/07 07:14:14;;;;;;;25.15;10.35;;;;;;;-0.65;56.19;100710.94;4462851;32;33798;-83
2022/01/07 07:16:43;;;;;;;37.55;11.57;;;;;;;-0.98;57.55;100709.53;4464000;31;32427;-83
2022/01/07 07:19:11;;;;;;;31.42;12.23;;;;;;;-0.63;56.75;100701.47;4461923;32;33042;-83
2022/01/07 07:21:39;;;;;;;27.13;12.98;;;;;;;-0.64;56.67;100704.91;4462812;32;34050;-84
2022/01/07 07:24:07;;;;;;;45.45;16.62;;;;;;;-1.02;57.79;100712.91;4454304;31;33915;-83
2022/01/07 07:26:35;;;;;;;30.95;11.68;;;;;;;-0.80;57.49;100702.06;4474331;31;32752;-83
2022/01/07 07:29:03;;;;;;;40.38;15.65;;;;;;;-0.63;57.00;100717.03;4473556;31;33574;-83
2022/01/07 07:31:32;;;;;;;33.30;13.30;;;;;;;-0.84;57.85;100721.00;4472634;32;33097;-83
2022/01/07 07:34:21;;;;;;;33.20;13.20;;;;;;;-0.93;58.36;100713.06;4466444;32;32933;-83
2022/01/07 07:36:49;;;;;;;30.10;13.68;;;;;;;-0.51;57.43;100704.25;4474538;31;32174;-83
2022/01/07 07:39:16;;;;;;;33.97;13.62;;;;;;;-0.41;57.28;100713.94;4462115;32;32650;-83
2022/01/07 07:41:44;;;;;;;30.08;12.37;;;;;;;-0.45;57.33;100716.44;4474736;31;33096;-83
2022/01/07 07:44:12;;;;;;;31.30;12.15;;;;;;;-0.37;57.22;100715.72;4461198;31;34578;-83
2022/01/07 07:46:40;;;;;;;31.02;12.00;;;;;;;-0.36;57.22;100716.59;4454183;32;32741;-83
2022/01/07 07:49:09;;;;;;;27.92;11.90;;;;;;;-0.35;56.93;100713.12;4475456;31;34415;-83
2022/01/07 07:51:37;;;;;;;24.15;10.50;;;;;;;-0.06;56.25;100710.97;4474705;31;33764;-83
2022/01/07 07:54:06;;;;;;;25.73;11.80;;;;;;;-0.14;56.76;100709.97;4473359;31;33869;-83
2022/01/07 07:56:33;;;;;;;24.87;11.25;;;;;;;0.04;56.81;100715.44;4465417;32;33743;-83
2022/01/07 07:59:02;;;;;;;25.02;10.88;;;;;;;0.09;56.42;100720.69;4463173;32;32828;-83
2022/01/07 08:01:29;;;;;;;27.70;12.35;;;;;;;0.11;56.80;100717.25;4448903;32;33020;-83
2022/01/07 08:03:57;;;;;;;27.55;10.77;;;;;;;0.19;56.67;100712.16;4474291;31;34094;-83
2022/01/07 08:06:25;;;;;;;23.85;10.65;;;;;;;0.49;56.13;100727.28;4471470;31;31898;-83
2022/01/07 08:08:53;;;;;;;27.30;11.73;;;;;;;0.60;55.91;100720.47;4467093;31;32957;-83
2022/01/07 08:11:23;;;;;;;25.83;11.05;;;;;;;0.70;55.93;100726.62;4459789;32;34515;-83
2022/01/07 08:16:37;;;;;;;17.98;10.27;;;;;;;0.73;55.65;100719.75;4473521;32;31993;-86
2022/01/07 08:19:05;;;;;;;25.33;11.52;;;;;;;0.82;55.69;100720.72;4450431;32;32572;-84
2022/01/07 08:21:32;;;;;;;22.70;10.20;;;;;;;0.97;55.39;100713.06;4475113;32;32415;-86
2022/01/07 08:24:01;;;;;;;20.83;11.23;;;;;;;1.00;55.05;100720.91;4471869;32;34947;-86
2022/01/07 08:26:28;;;;;;;22.00;11.48;;;;;;;1.32;54.40;100722.91;4461966;32;31031;-85
2022/01/07 08:29:00;;;;;;;21.27;10.80;;;;;;;1.45;54.07;100729.97;4460178;32;33426;-86
2022/01/07 08:36:47;;;;;;;23.35;10.23;;;;;;;1.59;52.61;100730.94;4464446;32;33765;-88
2022/01/07 08:39:14;;;;;;;23.25;9.13;;;;;;;2.12;51.07;100724.34;4460272;32;32842;-85
2022/01/07 08:41:44;;;;;;;21.42;8.75;;;;;;;2.00;52.00;100717.34;4472300;31;33860;-85
2022/01/07 08:44:12;;;;;;;15.43;7.20;;;;;;;1.92;52.60;100716.41;4446635;32;33281;-85
2022/01/07 08:46:40;;;;;;;23.90;8.45;;;;;;;1.92;52.70;100714.69;4463699;32;33094;-85
2022/01/07 08:49:07;;;;;;;14.25;5.12;;;;;;;2.19;51.84;100711.37;4475041;32;31850;-85
2022/01/07 08:51:35;;;;;;;5.90;3.30;;;;;;;2.52;48.56;100715.84;4453058;32;34203;-85
2022/01/07 08:54:03;;;;;;;14.52;3.30;;;;;;;2.25;48.89;100727.03;4462806;32;33408;-85
2022/01/07 08:56:32;;;;;;;8.48;3.62;;;;;;;2.82;47.86;100720.28;4465913;32;34549;-86
2022/01/07 08:59:01;;;;;;;13.10;4.37;;;;;;;2.35;47.87;100729.69;4476237;32;33152;-85
2022/01/07 09:01:28;;;;;;;9.38;4.12;;;;;;;2.24;48.44;100727.91;4475867;32;33792;-85
2022/01/07 09:03:57;;;;;;;16.77;4.25;;;;;;;2.82;47.20;100715.06;4462443;32;32947;-85
2022/01/07 09:06:25;;;;;;;11.43;4.30;;;;;;;2.75;46.61;100723.75;4462983;32;34615;-85
2022/01/07 09:08:53;;;;;;;13.77;5.00;;;;;;;2.58;46.99;100724.56;4460670;32;32156;-86
2022/01/07 09:11:20;;;;;;;9.30;4.22;;;;;;;3.00;47.34;100714.25;4460444;32;32785;-88
2022/01/07 09:13:51;;;;;;;15.32;4.70;;;;;;;3.06;47.19;100708.16;4458984;32;33286;-88
2022/01/07 09:16:20;;;;;;;10.55;3.85;;;;;;;3.30;47.76;100708.19;4451561;32;32460;-83
2022/01/07 09:18:49;;;;;;;12.07;3.53;;;;;;;3.69;46.54;100700.31;4469796;32;33898;-84
2022/01/07 09:21:18;;;;;;;12.70;4.70;;;;;;;3.92;45.97;100702.91;4451081;32;33704;-84
2022/01/07 09:23:46;;;;;;;13.88;4.68;;;;;;;4.36;44.44;100694.91;4459477;32;34119;-84
2022/01/07 09:26:14;;;;;;;6.03;2.40;;;;;;;3.63;44.21;100693.38;4462317;32;33154;-83
2022/01/07 09:28:42;;;;;;;5.12;2.60;;;;;;;3.96;41.05;100694.19;4472796;32;34152;-84
2022/01/07 09:31:11;;;;;;;4.00;1.90;;;;;;;4.20;43.26;100691.50;4465305;32;32877;-84
2022/01/07 09:33:39;;;;;;;5.30;2.37;;;;;;;4.34;42.32;100689.69;4473486;32;33359;-84
2022/01/07 09:36:26;;;;;;;3.15;1.75;;;;;;;4.33;42.28;100682.75;4463169;32;34524;-84
2022/01/07 09:38:54;;;;;;;7.28;2.12;;;;;;;4.80;39.40;100681.63;4477239;32;33374;-84
2022/01/07 09:41:22;;;;;;;2.97;1.52;;;;;;;4.40;39.27;100693.16;4446745;32;32592;-84
2022/01/07 09:43:50;;;;;;;4.32;1.90;;;;;;;4.60;39.99;100668.66;4461134;32;32793;-84
2022/01/07 09:46:18;;;;;;;7.37;1.95;;;;;;;4.78;38.70;100667.66;4473530;32;31770;-87
2022/01/07 09:48:46;;;;;;;3.45;1.70;;;;;;;5.18;38.84;100667.41;4463001;32;34278;-87
2022/01/07 09:51:15;;;;;;;5.30;2.78;;;;;;;5.22;38.85;100663.87;4461559;32;33028;-89
2022/01/07 09:53:43;;;;;;;4.68;2.25;;;;;;;5.44;38.78;100650.59;4473922;32;33894;-88
2022/01/07 09:56:11;;;;;;;10.05;4.87;;;;;;;5.56;37.14;100653.13;4461108;32;33542;-89
2022/01/07 09:58:39;;;;;;;8.93;2.97;;;;;;;5.45;38.94;100650.56;4458121;31;33037;-90
2022/01/07 10:01:16;;;;;;;8.20;4.15;;;;;;;5.73;36.91;100645.94;4449290;32;33090;-88
2022/01/07 10:03:45;;;;;;;11.12;5.78;;;;;;;5.22;37.12;100642.94;4466667;31;33879;-89
2022/01/07 10:06:16;;;;;;;6.57;3.17;;;;;;;5.11;38.39;100647.37;4448919;32;33011;-89
2022/01/07 10:08:46;;;;;;;4.93;2.35;;;;;;;5.60;39.10;100644.31;4479494;32;33888;-89
2022/01/07 10:11:19;;;;;;;4.57;2.35;;;;;;;5.67;36.85;100638.13;4477353;32;34025;-89
2022/01/07 10:13:49;;;;;;;9.93;3.33;;;;;;;5.75;36.44;100643.31;4459825;32;33890;-89
2022/01/07 10:16:20;;;;;;;6.10;3.08;;;;;;;5.87;36.42;100628.31;4464830;32;33563;-89
2022/01/07 10:18:50;;;;;;;4.10;2.65;;;;;;;5.84;38.28;100628.34;4464255;32;32764;-89
2022/01/07 10:21:19;;;;;;;16.33;9.30;;;;;;;5.92;36.95;100630.03;4450741;32;33986;-89
2022/01/07 10:23:47;;;;;;;6.55;4.03;;;;;;;5.62;38.00;100622.47;4449804;32;33751;-89
2022/01/07 10:26:22;;;;;;;5.75;2.50;;;;;;;5.22;38.50;100621.09;4466473;32;32875;-89
2022/01/07 10:28:51;;;;;;;6.68;3.42;;;;;;;5.83;36.99;100608.25;4461765;32;32714;-89
2022/01/07 10:31:22;;;;;;;7.97;3.05;;;;;;;5.76;37.82;100614.47;4450893;32;33021;-89
2022/01/07 10:33:53;;;;;;;4.32;2.08;;;;;;;5.68;37.60;100621.53;4437565;32;33837;-89
2022/01/07 10:36:24;;;;;;;6.30;2.80;;;;;;;5.36;38.11;100621.84;4445970;32;33038;-89
2022/01/07 10:38:59;;;;;;;8.93;4.27;;;;;;;5.67;39.05;100601.47;4487343;31;33213;-89
2022/01/07 10:41:27;;;;;;;4.75;2.12;;;;;;;5.86;37.49;100605.59;4454259;32;34127;-89
2022/01/07 10:44:02;;;;;;;6.87;3.28;;;;;;;6.16;38.67;100593.03;4474268;32;34348;-90
2022/01/07 10:46:31;;;;;;;4.32;2.35;;;;;;;6.23;37.82;100589.47;4473234;32;33764;-89
2022/01/07 10:49:02;;;;;;;4.07;1.90;;;;;;;6.71;36.69;100589.66;4451452;32;31786;-89
2022/01/07 10:51:38;;;;;;;4.05;2.58;;;;;;;6.52;35.40;100578.56;4466563;32;33410;-89
2022/01/07 10:54:10;;;;;;;4.85;2.28;;;;;;;6.96;36.28;100581.38;4466767;32;30822;-89
2022/01/07 10:56:41;;;;;;;7.03;2.08;;;;;;;6.64;37.32;100577.50;4464131;32;33546;-89
2022/01/07 10:59:11;;;;;;;5.93;3.65;;;;;;;6.59;37.68;100576.69;4473200;32;32004;-89
2022/01/07 11:01:42;;;;;;;6.78;3.55;;;;;;;6.59;37.53;100581.94;4465012;32;33058;-89
2022/01/07 11:04:13;;;;;;;6.90;2.63;;;;;;;7.07;36.95;100563.66;4461986;32;32823;-89
2022/01/07 11:06:41;;;;;;;2.12;1.37;;;;;;;7.11;36.93;100571.47;4477332;31;34664;-89
2022/01/07 11:09:12;;;;;;;2.22;1.70;;;;;;;6.16;34.86;100566.81;4452554;32;32133;-89
2022/01/07 11:11:54;;;;;;;5.60;2.25;;;;;;;6.47;34.10;100561.16;4463818;32;33425;-89
2022/01/07 11:14:26;;;;;;;6.62;1.85;;;;;;;6.41;35.47;100568.22;4459946;32;33283;-89
2022/01/07 11:16:57;;;;;;;3.65;2.05;;;;;;;6.84;34.79;100557.06;4481092;31;33920;-89
2022/01/07 11:19:33;;;;;;;2.22;1.40;;;;;;;6.73;35.24;100553.72;4458970;32;34003;-89
2022/01/07 11:22:02;;;;;;;4.50;2.30;;;;;;;6.94;34.32;100547.28;4449137;32;33069;-89
2022/01/07 11:24:35;;;;;;;3.83;2.28;;;;;;;7.01;34.86;100559.41;4447319;32;33583;-89
2022/01/07 11:27:09;;;;;;;3.90;2.67;;;;;;;7.43;33.60;100531.50;4454680;32;34315;-89
2022/01/07 11:30:28;;;;;;;3.30;1.58;;;;;;;6.47;35.09;100550.66;4461092;32;33703;-91
2022/01/07 11:34:13;;;;;;;3.87;1.77;;;;;;;6.32;34.56;100546.50;4457331;32;34480;-90
2022/01/07 11:36:41;;;;;;;5.87;2.28;;;;;;;6.75;36.40;100544.09;4424764;32;34374;-90
2022/01/07 11:39:09;;;;;;;3.75;2.35;;;;;;;7.07;34.99;100538.28;4454811;32;33115;-90
2022/01/07 11:41:53;;;;;;;5.53;3.95;;;;;;;7.13;35.31;100526.81;4448919;32;30856;-90
2022/01/07 11:44:29;;;;;;;3.85;2.72;;;;;;;6.83;35.45;100534.31;4437525;32;33918;-89
2022/01/07 11:47:21;;;;;;;4.45;2.60;;;;;;;7.00;35.22;100527.91;4447356;32;33505;-90